Time;durP1;ratioP1;P1;durP2;ratioP2;P2;SDS_P1;SDS_P2;PMS_P1;PMS_P2;Temp;Humidity;BMP_temperature;BMP_pressure;BME280_temperature;BME280_humidity;BME280_pressure;Samples;Min_cycle;Max_cycle;Signal;HPM_P1;HPM_P2
2021/10/12 00:00:11;;;;;;;2.17;0.82;;;;;;;;;;5094839;28;20031;-72
2021/10/12 00:02:37;;;;;;;2.00;1.02;;;;;;;;;;5095943;28;20028;-73
2021/10/12 00:05:03;;;;;;;1.25;0.60;;;;;;;;;;5094847;28;20020;-73
2021/10/12 00:07:29;;;;;;;1.42;0.70;;;;;;;;;;5096005;28;20035;-73
2021/10/12 00:09:55;;;;;;;1.45;0.73;;;;;;;;;;5094219;28;20117;-72
2021/10/12 00:12:23;;;;;;;2.13;0.75;;;;;;;;;;5096221;28;20024;-73
2021/10/12 00:14:49;;;;;;;1.00;0.60;;;;;;;;;;5095907;28;20028;-72
2021/10/12 00:17:15;;;;;;;2.30;0.93;;;;;;;;;;5095425;28;20031;-72
2021/10/12 00:19:41;;;;;;;1.35;0.80;;;;;;;;;;5095990;28;20024;-73
2021/10/12 00:22:08;;;;;;;0.55;0.50;;;;;;;;;;5095752;28;20028;-72
2021/10/12 00:24:34;;;;;;;1.52;0.57;;;;;;;;;;5095307;28;20055;-73
2021/10/12 00:27:00;;;;;;;0.68;0.50;;;;;;;;;;5095763;28;20038;-72
2021/10/12 00:29:26;;;;;;;0.93;0.60;;;;;;;;;;5095388;28;20040;-73
2021/10/12 00:31:53;;;;;;;1.70;0.70;;;;;;;;;;5093958;28;20024;-73
2021/10/12 00:34:19;;;;;;;2.65;1.08;;;;;;;;;;5095542;28;20032;-73
2021/10/12 00:36:48;;;;;;;3.20;0.90;;;;;;;;;;5094274;28;20024;-73
2021/10/12 00:39:14;;;;;;;3.78;1.13;;;;;;;;;;5095215;28;20020;-72
2021/10/12 00:41:40;;;;;;;3.22;0.98;;;;;;;;;;5095456;28;20073;-73
2021/10/12 00:44:07;;;;;;;0.98;0.80;;;;;;;;;;5094165;28;20024;-72
2021/10/12 00:46:34;;;;;;;1.83;0.70;;;;;;;;;;5093666;28;20016;-73
2021/10/12 00:49:00;;;;;;;0.90;0.52;;;;;;;;;;5093863;28;20123;-74
2021/10/12 00:51:27;;;;;;;0.73;0.60;;;;;;;;;;5095226;28;20024;-73
2021/10/12 00:53:53;;;;;;;0.60;0.60;;;;;;;;;;5095540;28;20024;-73
2021/10/12 00:56:20;;;;;;;1.35;0.70;;;;;;;;;;5095093;28;20089;-73
2021/10/12 00:58:47;;;;;;;0.60;0.60;;;;;;;;;;5093391;28;20016;-73
2021/10/12 01:01:13;;;;;;;1.05;0.70;;;;;;;;;;5093642;28;20034;-73
2021/10/12 01:03:40;;;;;;;1.23;0.70;;;;;;;;;;5094875;28;20022;-73
2021/10/12 01:06:06;;;;;;;0.60;0.60;;;;;;;;;;5093261;28;20024;-73
2021/10/12 01:08:32;;;;;;;0.88;0.70;;;;;;;;;;5094811;28;20020;-73
2021/10/12 01:10:59;;;;;;;1.08;0.60;;;;;;;;;;5094762;28;20484;-73
2021/10/12 01:13:25;;;;;;;0.50;0.50;;;;;;;;;;5093297;28;20376;-73
2021/10/12 01:15:52;;;;;;;1.08;0.88;;;;;;;;;;5094719;28;20028;-73
2021/10/12 01:18:18;;;;;;;1.50;0.80;;;;;;;;;;5094847;28;20425;-74
2021/10/12 01:20:44;;;;;;;0.50;0.50;;;;;;;;;;5093065;28;20043;-72
2021/10/12 01:23:11;;;;;;;0.63;0.60;;;;;;;;;;5094670;28;20021;-73
2021/10/12 01:25:38;;;;;;;0.75;0.65;;;;;;;;;;5094632;28;20031;-72
2021/10/12 01:28:05;;;;;;;1.23;0.60;;;;;;;;;;5093816;28;20028;-73
2021/10/12 01:30:31;;;;;;;0.98;0.75;;;;;;;;;;5094592;28;20538;-73
2021/10/12 01:32:58;;;;;;;1.10;0.80;;;;;;;;;;5093113;28;20020;-73
2021/10/12 01:35:24;;;;;;;0.55;0.43;;;;;;;;;;5092690;28;20547;-73
2021/10/12 01:37:50;;;;;;;0.85;0.68;;;;;;;;;;5092606;28;20024;-73
2021/10/12 01:40:17;;;;;;;1.17;0.77;;;;;;;;;;5094334;28;20020;-73
2021/10/12 01:42:44;;;;;;;2.80;0.82;;;;;;;;;;5093822;28;20081;-72
2021/10/12 01:45:11;;;;;;;0.95;0.88;;;;;;;;;;5092923;28;20028;-74
2021/10/12 01:47:38;;;;;;;2.72;0.98;;;;;;;;;;5092860;28;20480;-73
2021/10/12 01:50:05;;;;;;;1.42;1.02;;;;;;;;;;5093660;28;20442;-73
2021/10/12 01:52:31;;;;;;;1.73;0.85;;;;;;;;;;5094117;28;20027;-73
2021/10/12 01:54:57;;;;;;;1.27;0.93;;;;;;;;;;5093711;28;20369;-74
2021/10/12 01:57:23;;;;;;;2.20;1.02;;;;;;;;;;5092706;28;20024;-73
2021/10/12 01:59:50;;;;;;;2.72;1.30;;;;;;;;;;5094150;28;20034;-73
2021/10/12 02:02:16;;;;;;;2.47;1.17;;;;;;;;;;5092416;28;20391;-74
2021/10/12 02:04:42;;;;;;;2.50;1.10;;;;;;;;;;5093930;28;20032;-74
2021/10/12 02:07:08;;;;;;;1.92;1.10;;;;;;;;;;5093860;28;20022;-73
2021/10/12 02:09:34;;;;;;;1.58;0.80;;;;;;;;;;5093683;28;20032;-74
2021/10/12 02:12:01;;;;;;;0.93;0.82;;;;;;;;;;5092482;28;20119;-73
2021/10/12 02:14:27;;;;;;;2.05;1.20;;;;;;;;;;5093723;28;20095;-73
2021/10/12 02:16:54;;;;;;;1.27;0.80;;;;;;;;;;5093334;28;20066;-73
2021/10/12 02:19:20;;;;;;;1.40;1.00;;;;;;;;;;5093715;28;20024;-73
2021/10/12 02:21:46;;;;;;;1.95;0.85;;;;;;;;;;5093766;28;20020;-73
2021/10/12 02:24:12;;;;;;;1.58;0.82;;;;;;;;;;5093291;28;20028;-73
2021/10/12 02:26:38;;;;;;;1.42;0.95;;;;;;;;;;5093879;28;20095;-73
2021/10/12 02:29:04;;;;;;;1.50;0.90;;;;;;;;;;5092134;28;20411;-73
2021/10/12 02:31:31;;;;;;;1.70;0.93;;;;;;;;;;5093300;28;20099;-74
2021/10/12 02:33:57;;;;;;;1.33;1.00;;;;;;;;;;5092351;28;20028;-74
2021/10/12 02:36:23;;;;;;;1.90;1.08;;;;;;;;;;5093542;28;20366;-73
2021/10/12 02:38:49;;;;;;;1.38;0.90;;;;;;;;;;5093182;28;20020;-74
2021/10/12 02:41:16;;;;;;;1.33;0.77;;;;;;;;;;5093515;28;20043;-73
2021/10/12 02:43:42;;;;;;;2.00;1.00;;;;;;;;;;5093477;28;20020;-73
2021/10/12 02:46:08;;;;;;;1.35;0.90;;;;;;;;;;5091801;28;20051;-73
2021/10/12 02:48:34;;;;;;;0.75;0.75;;;;;;;;;;5092132;28;20508;-73
2021/10/12 02:51:00;;;;;;;1.90;1.20;;;;;;;;;;5095782;28;20051;-73
2021/10/12 02:53:27;;;;;;;1.05;0.90;;;;;;;;;;5097155;28;20027;-74
2021/10/12 02:55:53;;;;;;;1.25;0.90;;;;;;;;;;5097433;28;20392;-73
2021/10/12 02:58:19;;;;;;;2.58;0.93;;;;;;;;;;5097008;28;20125;-73
2021/10/12 03:00:45;;;;;;;2.65;0.90;;;;;;;;;;5097416;28;20021;-74
2021/10/12 03:03:12;;;;;;;1.33;0.70;;;;;;;;;;5097471;28;20028;-73
2021/10/12 03:05:43;;;;;;;1.65;0.60;;;;;;;;;;5095597;28;20027;-73
2021/10/12 03:08:09;;;;;;;2.83;1.02;;;;;;;;;;5097428;28;20028;-74
2021/10/12 03:10:35;;;;;;;1.00;0.70;;;;;;;;;;5097176;28;20395;-74
2021/10/12 03:13:01;;;;;;;1.63;0.80;;;;;;;;;;5095445;28;20030;-74
2021/10/12 03:15:27;;;;;;;1.20;0.90;;;;;;;;;;5097048;28;20028;-72
2021/10/12 03:17:53;;;;;;;1.73;1.00;;;;;;;;;;5097191;28;20024;-71
2021/10/12 03:20:21;;;;;;;0.85;0.70;;;;;;;;;;5097001;28;20028;-74
2021/10/12 03:22:47;;;;;;;0.80;0.75;;;;;;;;;;5097186;28;20016;-74
2021/10/12 03:25:14;;;;;;;1.48;0.70;;;;;;;;;;5095716;28;20024;-75
2021/10/12 03:27:40;;;;;;;1.02;0.70;;;;;;;;;;5096711;28;20417;-74
2021/10/12 03:30:07;;;;;;;2.05;1.00;;;;;;;;;;5096595;28;20048;-73
2021/10/12 03:32:33;;;;;;;2.83;1.00;;;;;;;;;;5095500;28;20024;-74
2021/10/12 03:34:59;;;;;;;1.67;0.82;;;;;;;;;;5096240;28;20119;-75
2021/10/12 03:37:25;;;;;;;2.15;0.90;;;;;;;;;;5096680;28;20024;-75
2021/10/12 03:39:51;;;;;;;1.70;0.70;;;;;;;;;;5096602;28;20127;-74
2021/10/12 03:42:17;;;;;;;3.15;0.82;;;;;;;;;;5094887;28;20073;-74
2021/10/12 03:44:44;;;;;;;0.95;0.70;;;;;;;;;;5096537;28;20477;-74
2021/10/12 03:47:10;;;;;;;1.58;1.45;;;;;;;;;;5097338;28;20031;-74
2021/10/12 03:49:36;;;;;;;1.40;0.68;;;;;;;;;;5094726;28;20126;-74
2021/10/12 03:52:03;;;;;;;1.10;0.77;;;;;;;;;;5096737;28;20031;-73
2021/10/12 03:54:29;;;;;;;1.20;0.68;;;;;;;;;;5095952;28;20066;-73
2021/10/12 03:56:55;;;;;;;2.63;1.00;;;;;;;;;;5096320;28;20163;-73
2021/10/12 03:59:21;;;;;;;3.60;0.80;;;;;;;;;;5094951;28;20031;-73
2021/10/12 04:01:47;;;;;;;2.05;1.10;;;;;;;;;;5095372;28;20430;-73
2021/10/12 04:04:14;;;;;;;2.45;1.10;;;;;;;;;;5096332;28;20099;-74
2021/10/12 04:06:40;;;;;;;1.67;1.00;;;;;;;;;;5096064;28;20095;-74
2021/10/12 04:09:06;;;;;;;3.17;0.73;;;;;;;;;;5094315;28;20036;-74
2021/10/12 04:11:32;;;;;;;1.80;0.90;;;;;;;;;;5096040;28;20027;-74
2021/10/12 04:13:58;;;;;;;0.90;0.70;;;;;;;;;;5096013;28;20099;-74
2021/10/12 04:16:25;;;;;;;1.67;0.95;;;;;;;;;;5095462;28;20017;-73
2021/10/12 04:18:51;;;;;;;1.65;0.90;;;;;;;;;;5095994;28;20078;-74
2021/10/12 04:21:17;;;;;;;2.50;1.13;;;;;;;;;;5095823;28;20488;-73
2021/10/12 04:23:43;;;;;;;2.95;0.90;;;;;;;;;;5094224;28;20032;-74
2021/10/12 04:26:12;;;;;;;1.23;0.75;;;;;;;;;;5095725;28;20427;-74
2021/10/12 04:28:38;;;;;;;1.33;0.68;;;;;;;;;;5094106;28;20052;-74
2021/10/12 04:31:05;;;;;;;0.88;0.68;;;;;;;;;;5094010;28;20024;-74
2021/10/12 04:33:31;;;;;;;0.82;0.80;;;;;;;;;;5095962;28;20415;-74
2021/10/12 04:35:57;;;;;;;4.35;0.90;;;;;;;;;;5096089;28;20052;-74
2021/10/12 04:38:23;;;;;;;0.70;0.70;;;;;;;;;;5093894;28;20110;-75
2021/10/12 04:40:50;;;;;;;0.82;0.70;;;;;;;;;;5095488;28;20028;-74
2021/10/12 04:43:16;;;;;;;0.85;0.60;;;;;;;;;;5095564;28;20411;-74
2021/10/12 04:45:43;;;;;;;1.30;0.63;;;;;;;;;;5095711;28;20020;-73
2021/10/12 04:48:09;;;;;;;2.05;0.60;;;;;;;;;;5095223;28;20031;-74
2021/10/12 04:50:35;;;;;;;1.30;0.80;;;;;;;;;;5095208;28;20035;-74
2021/10/12 04:53:01;;;;;;;0.50;0.50;;;;;;;;;;5095016;28;20028;-72
2021/10/12 04:55:30;;;;;;;0.52;0.52;;;;;;;;;;5095400;28;20043;-73
2021/10/12 04:57:56;;;;;;;1.15;0.73;;;;;;;;;;5094701;28;20381;-73
2021/10/12 05:00:22;;;;;;;4.90;1.30;;;;;;;;;;5093761;28;20031;-72
2021/10/12 05:02:49;;;;;;;1.00;0.60;;;;;;;;;;5095020;28;20027;-73
2021/10/12 05:05:15;;;;;;;4.32;0.82;;;;;;;;;;5094580;28;20070;-73
2021/10/12 05:07:41;;;;;;;3.13;1.10;;;;;;;;;;5094940;28;20028;-71
2021/10/12 05:10:08;;;;;;;3.50;1.77;;;;;;;;;;5095051;28;20028;-72
2021/10/12 05:12:34;;;;;;;0.80;0.80;;;;;;;;;;5093439;28;20047;-72
2021/10/12 05:15:02;;;;;;;1.05;0.70;;;;;;;;;;5097827;28;20024;-71
2021/10/12 05:17:46;;;;;;;2.97;1.38;;;;;;;;;;5079373;28;20534;-72
2021/10/12 05:20:12;;;;;;;;;;;;;;;;;;5083786;28;20043;-73
2021/10/12 05:22:38;;;;;;;1.77;1.15;;;;;;;;;;5088519;28;19908;-72
2021/10/12 05:25:04;;;;;;;2.08;0.85;;;;;;;;;;5092947;28;20137;-75
2021/10/12 05:27:31;;;;;;;1.98;1.13;;;;;;;;;;5090669;28;20472;-72
2021/10/12 05:29:57;;;;;;;4.47;1.27;;;;;;;;;;5088501;28;20052;-70
2021/10/12 05:32:23;;;;;;;3.65;1.25;;;;;;;;;;5080039;28;20103;-70
2021/10/12 05:34:50;;;;;;;2.03;0.90;;;;;;;;;;5071835;28;20024;-71
2021/10/12 05:37:16;;;;;;;2.65;1.20;;;;;;;;;;5070706;28;20549;-73
2021/10/12 05:39:42;;;;;;;5.07;1.70;;;;;;;;;;5090713;28;20123;-71
2021/10/12 05:42:08;;;;;;;3.30;1.40;;;;;;;;;;5093067;28;20388;-70
2021/10/12 05:44:34;;;;;;;1.58;1.05;;;;;;;;;;5089363;28;20031;-72
2021/10/12 05:47:01;;;;;;;5.70;1.40;;;;;;;;;;5092476;28;20024;-71
2021/10/12 05:49:27;;;;;;;4.60;1.73;;;;;;;;;;5092054;28;20042;-72
2021/10/12 05:51:53;;;;;;;3.03;1.60;;;;;;;;;;5091849;28;20384;-72
2021/10/12 05:54:22;;;;;;;3.08;1.10;;;;;;;;;;5080812;28;20043;-72
2021/10/12 05:57:05;;;;;;;4.80;1.48;;;;;;;;;;5072135;28;20042;-71
2021/10/12 05:59:32;;;;;;;2.53;1.42;;;;;;;;;;5087597;28;20449;-70
2021/10/12 06:01:59;;;;;;;4.40;1.88;;;;;;;;;;5091758;28;20111;-72
2021/10/12 06:04:26;;;;;;;4.50;1.50;;;;;;;;;;5092179;28;20024;-71
2021/10/12 06:07:01;;;;;;;3.95;1.45;;;;;;;;;;5091018;28;20016;-71
2021/10/12 06:09:28;;;;;;;6.15;2.78;;;;;;;;;;5089716;28;20036;-71
2021/10/12 06:11:56;;;;;;;6.20;2.05;;;;;;;;;;5092128;28;20027;-71
2021/10/12 06:14:23;;;;;;;2.50;1.17;;;;;;;;;;5092084;28;20162;-72
2021/10/12 06:16:49;;;;;;;1.00;0.93;;;;;;;;;;5090631;28;20024;-72
2021/10/12 06:19:15;;;;;;;2.28;1.25;;;;;;;;;;5092612;28;20521;-73
2021/10/12 06:21:41;;;;;;;3.88;1.50;;;;;;;;;;5092962;28;20028;-73
2021/10/12 06:24:08;;;;;;;1.75;1.15;;;;;;;;;;5092400;28;20074;-74
2021/10/12 06:26:34;;;;;;;2.15;1.05;;;;;;;;;;5091888;28;20099;-73
2021/10/12 06:29:00;;;;;;;2.45;1.27;;;;;;;;;;5092309;28;20043;-72
2021/10/12 06:31:26;;;;;;;3.53;1.58;;;;;;;;;;5092478;28;20066;-73
2021/10/12 06:33:52;;;;;;;7.68;2.20;;;;;;;;;;5092474;28;20099;-70
2021/10/12 06:36:18;;;;;;;11.05;3.95;;;;;;;;;;5090894;28;20512;-75
2021/10/12 06:38:45;;;;;;;9.38;3.50;;;;;;;;;;5090931;28;20387;-72
2021/10/12 06:41:11;;;;;;;7.28;2.97;;;;;;;;;;5086530;28;20024;-72
2021/10/12 06:43:37;;;;;;;5.72;2.55;;;;;;;;;;5071651;28;20561;-71
2021/10/12 06:46:03;;;;;;;4.80;2.33;;;;;;;;;;5091362;28;20147;-73
2021/10/12 06:48:29;;;;;;;11.27;3.50;;;;;;;;;;5091140;28;20032;-72
2021/10/12 06:50:55;;;;;;;11.45;3.35;;;;;;;;;;5091666;28;20035;-74
2021/10/12 06:53:22;;;;;;;6.28;2.60;;;;;;;;;;5092375;28;20369;-73
2021/10/12 06:55:48;;;;;;;7.88;2.92;;;;;;;;;;5092138;28;20028;-74
2021/10/12 06:58:14;;;;;;;7.55;2.22;;;;;;;;;;5091233;28;20021;-72
2021/10/12 07:00:40;;;;;;;3.58;1.95;;;;;;;;;;5092735;28;20449;-78
2021/10/12 07:03:06;;;;;;;5.00;2.58;;;;;;;;;;5093791;28;20083;-81
2021/10/12 07:05:33;;;;;;;8.02;4.75;;;;;;;;;;5094092;28;20103;-83
2021/10/12 07:08:07;;;;;;;4.75;2.10;;;;;;;;;;5095469;28;20036;-86
2021/10/12 07:10:33;;;;;;;3.70;2.00;;;;;;;;;;5091053;28;20051;-77
2021/10/12 07:13:02;;;;;;;4.75;2.22;;;;;;;;;;5071686;28;20024;-78
2021/10/12 07:15:29;;;;;;;3.63;1.90;;;;;;;;;;5072403;28;20028;-76
2021/10/12 07:17:55;;;;;;;5.22;2.70;;;;;;;;;;5069183;28;20032;-77
2021/10/12 07:20:21;;;;;;;3.67;1.55;;;;;;;;;;5069585;28;20064;-75
2021/10/12 07:22:47;;;;;;;4.90;2.38;;;;;;;;;;5076120;28;20059;-78
2021/10/12 07:25:13;;;;;;;3.75;1.70;;;;;;;;;;5084854;28;20016;-79
2021/10/12 07:27:40;;;;;;;3.75;1.85;;;;;;;;;;5092643;28;20035;-80
2021/10/12 07:30:06;;;;;;;2.63;1.23;;;;;;;;;;5091090;28;20119;-81
2021/10/12 07:32:34;;;;;;;4.63;2.30;;;;;;;;;;5090933;28;20035;-79
2021/10/12 07:35:00;;;;;;;6.63;2.42;;;;;;;;;;5093245;28;20032;-79
2021/10/12 07:37:27;;;;;;;4.40;2.03;;;;;;;;;;5095246;28;20036;-79
2021/10/12 07:39:53;;;;;;;9.95;4.13;;;;;;;;;;5095910;28;20035;-77
2021/10/12 07:42:19;;;;;;;5.45;2.70;;;;;;;;;;5095311;28;20024;-78
2021/10/12 07:44:45;;;;;;;7.00;3.30;;;;;;;;;;5095954;28;20023;-79
2021/10/12 07:47:12;;;;;;;6.55;1.92;;;;;;;;;;5095151;28;20020;-80
2021/10/12 07:49:38;;;;;;;5.32;2.28;;;;;;;;;;5094894;28;20051;-79
2021/10/12 07:52:08;;;;;;;3.25;1.50;;;;;;;;;;5091677;28;20111;-78
2021/10/12 07:55:01;;;;;;;5.10;1.90;;;;;;;;;;5094411;28;20024;-78
2021/10/12 07:57:24;;;;;;;6.32;2.70;;;;;;;;;;5094331;28;20047;-81
2021/10/12 07:59:50;;;;;;;8.45;2.55;;;;;;;;;;5097689;28;20021;-77
2021/10/12 08:02:17;;;;;;;5.88;2.13;;;;;;;;;;5095260;28;20480;-78
2021/10/12 08:04:43;;;;;;;8.80;3.78;;;;;;;;;;5093016;28;20062;-79
2021/10/12 08:07:10;;;;;;;12.57;5.13;;;;;;;;;;5091619;28;20031;-78
2021/10/12 08:09:36;;;;;;;8.45;3.97;;;;;;;;;;5093145;28;20032;-78
2021/10/12 08:12:07;;;;;;;9.45;3.75;;;;;;;;;;5093520;28;20030;-77
2021/10/12 08:14:38;;;;;;;5.88;2.60;;;;;;;;;;5093522;28;20107;-76
2021/10/12 08:17:04;;;;;;;7.68;2.90;;;;;;;;;;5094470;28;20396;-75
2021/10/12 08:19:30;;;;;;;7.75;3.20;;;;;;;;;;5093076;28;20081;-76
2021/10/12 08:21:57;;;;;;;7.05;2.95;;;;;;;;;;5091877;28;20021;-77
2021/10/12 08:24:23;;;;;;;5.28;2.45;;;;;;;;;;5093626;28;20055;-77
2021/10/12 08:26:50;;;;;;;7.07;2.40;;;;;;;;;;5093529;28;20095;-78
2021/10/12 08:29:17;;;;;;;9.57;3.97;;;;;;;;;;5092324;28;20055;-77
2021/10/12 08:31:43;;;;;;;6.32;3.15;;;;;;;;;;5092535;28;20080;-77
2021/10/12 08:34:10;;;;;;;7.55;2.85;;;;;;;;;;5093709;28;20055;-77
2021/10/12 08:37:16;;;;;;;5.95;2.67;;;;;;;;;;5109659;27;20422;-76
2021/10/12 08:39:44;;;;;;;10.18;2.47;;;;;;;;;;5109782;28;20036;-78
2021/10/12 08:42:27;;;;;;;6.50;2.42;;;;;;;;;;5110349;28;20049;-77
2021/10/12 08:45:01;;;;;;;3.28;1.50;;;;;;;;;;5106170;28;20119;-78
2021/10/12 08:49:28;;;;;;;5.05;2.42;;;;;;;;;;5110053;27;20392;-79
2021/10/12 08:51:54;;;;;;;7.00;3.20;;;;;;;;;;5108487;28;20023;-79
2021/10/12 08:54:20;;;;;;;6.32;3.17;;;;;;;;;;5101401;28;20020;-80
2021/10/12 08:57:52;;;;;;;7.97;3.22;;;;;;;;;;5087286;27;20418;-80
2021/10/12 09:02:12;;;;;;;16.40;6.63;;;;;;;;;;5069307;28;20391;-78
2021/10/12 09:04:42;;;;;;;7.53;3.20;;;;;;;;;;5068478;28;20036;-78
2021/10/12 09:07:27;;;;;;;7.22;2.90;;;;;;;;;;5108846;27;20994;-73
2021/10/12 09:09:55;;;;;;;6.47;2.75;;;;;;;;;;5110623;28;20073;-73
2021/10/12 09:12:40;;;;;;;6.22;3.13;;;;;;;;;;5069867;28;20462;-73
2021/10/12 09:15:07;;;;;;;6.40;2.40;;;;;;;;;;5067441;28;20094;-77
2021/10/12 09:20:36;;;;;;;10.77;3.72;;;;;;;;;;5107197;27;20409;-68
2021/10/12 09:23:10;;;;;;;7.57;3.00;;;;;;;;;;5121895;28;20118;-67
2021/10/12 09:25:37;;;;;;;6.68;3.10;;;;;;;;;;5099020;28;20097;-67
2021/10/12 09:28:04;;;;;;;8.27;3.58;;;;;;;;;;5104227;28;20042;-69
2021/10/12 09:30:31;;;;;;;6.53;2.88;;;;;;;;;;5107887;28;20020;-68
2021/10/12 09:32:58;;;;;;;6.70;2.33;;;;;;;;;;5103003;28;20028;-69
2021/10/12 09:35:28;;;;;;;7.63;3.40;;;;;;;;;;5088882;28;20025;-68
2021/10/12 09:41:09;;;;;;;9.07;3.83;;;;;;;;;;5069054;28;20399;-67
2021/10/12 09:43:35;;;;;;;10.63;4.40;;;;;;;;;;5068782;28;20032;-68
2021/10/12 09:46:02;;;;;;;24.85;14.95;;;;;;;;;;5068979;28;20106;-67
2021/10/12 10:04:23;;;;;;;7.28;2.95;;;;;;;;;;5069109;28;20423;-76
2021/10/12 10:06:50;;;;;;;6.90;3.65;;;;;;;;;;5069580;28;20545;-73
2021/10/12 10:09:19;;;;;;;6.20;3.20;;;;;;;;;;5051020;28;20481;-75
2021/10/12 10:11:45;;;;;;;5.97;2.78;;;;;;;;;;5051646;28;20116;-73
2021/10/12 10:14:52;;;;;;;6.85;2.15;;;;;;;;;;5110636;27;20385;-72
2021/10/12 10:17:20;;;;;;;4.22;2.45;;;;;;;;;;5110103;28;20085;-71
2021/10/12 10:19:46;;;;;;;5.00;2.42;;;;;;;;;;5110353;28;20028;-69
2021/10/12 10:23:40;;;;;;;5.00;2.33;;;;;;;;;;5110474;27;21028;-71
2021/10/12 10:26:24;;;;;;;7.07;3.30;;;;;;;;;;5110808;28;20028;-74
2021/10/12 10:29:17;;;;;;;7.55;2.60;;;;;;;;;;5172020;27;20160;-71
2021/10/12 10:33:37;;;;;;;3.83;2.15;;;;;;;;;;5111204;27;20121;-72
2021/10/12 10:36:07;;;;;;;4.93;2.05;;;;;;;;;;5110645;28;20081;-72
2021/10/12 10:42:09;;;;;;;4.10;1.83;;;;;;;;;;5152017;27;20596;-72
2021/10/12 10:44:54;;;;;;;7.65;3.28;;;;;;;;;;5131154;28;20034;-73
2021/10/12 10:47:39;;;;;;;6.18;3.40;;;;;;;;;;5128226;28;20103;-71
2021/10/12 10:52:34;;;;;;;5.15;2.17;;;;;;;;;;5069864;28;20395;-71
2021/10/12 10:55:01;;;;;;;4.15;1.83;;;;;;;;;;5069775;28;20028;-72
2021/10/12 10:57:29;;;;;;;4.80;1.95;;;;;;;;;;5069161;28;20142;-72
2021/10/12 11:00:13;;;;;;;3.20;2.15;;;;;;;;;;5068520;28;20029;-71
2021/10/12 11:02:47;;;;;;;4.30;1.95;;;;;;;;;;5069832;28;20032;-71
2021/10/12 11:05:32;;;;;;;4.57;2.50;;;;;;;;;;5069087;28;20108;-73
2021/10/12 11:08:29;;;;;;;8.98;3.92;;;;;;;;;;5106791;27;20842;-71
2021/10/12 11:11:02;;;;;;;6.03;3.17;;;;;;;;;;5110694;28;20030;-72
2021/10/12 11:15:55;;;;;;;3.35;2.03;;;;;;;;;;5110732;27;20380;-71
2021/10/12 11:19:56;;;;;;;4.05;1.77;;;;;;;;;;5110257;27;20314;-72
2021/10/12 11:24:28;;;;;;;6.40;3.53;;;;;;;;;;5110682;27;20412;-73
2021/10/12 11:26:57;;;;;;;4.97;2.63;;;;;;;;;;5110056;28;20387;-70
2021/10/12 11:30:36;;;;;;;3.42;2.22;;;;;;;;;;5109899;27;20454;-69
2021/10/12 11:37:32;;;;;;;12.88;4.88;;;;;;;;;;5105391;27;20384;-71
2021/10/12 11:40:18;;;;;;;5.55;2.58;;;;;;;;;;5106124;28;20487;-70
2021/10/12 11:42:45;;;;;;;7.90;3.00;;;;;;;;;;5108959;28;20026;-70
2021/10/12 11:45:11;;;;;;;6.72;3.58;;;;;;;;;;5110597;28;20032;-70
2021/10/12 11:47:38;;;;;;;5.75;3.20;;;;;;;;;;5110327;28;20020;-71
2021/10/12 11:50:08;;;;;;;10.35;4.07;;;;;;;;;;5110860;28;20043;-70
2021/10/12 11:54:42;;;;;;;8.23;3.03;;;;;;;;;;5110139;27;20396;-70
2021/10/12 11:58:46;;;;;;;4.72;2.78;;;;;;;;;;5111020;27;20400;-71
2021/10/12 12:02:40;;;;;;;4.57;2.60;;;;;;;;;;5110590;27;20903;-71
2021/10/12 12:05:06;;;;;;;7.28;4.20;;;;;;;;;;5110525;28;20080;-70
2021/10/12 12:09:42;;;;;;;7.90;4.32;;;;;;;;;;5110739;27;20389;-71
2021/10/12 12:12:08;;;;;;;5.70;3.58;;;;;;;;;;5110789;28;20028;-73
2021/10/12 12:18:20;;;;;;;8.68;4.40;;;;;;;;;;5070550;28;20938;-71
2021/10/12 12:20:53;;;;;;;11.13;4.78;;;;;;;;;;5070179;28;20032;-74
2021/10/12 12:25:01;;;;;;;9.30;4.90;;;;;;;;;;5110503;27;20887;-74
2021/10/12 12:29:20;;;;;;;8.80;3.83;;;;;;;;;;5109721;27;20139;-69
2021/10/12 12:31:48;;;;;;;8.95;4.63;;;;;;;;;;5109162;28;20055;-67
2021/10/12 12:34:24;;;;;;;10.43;6.03;;;;;;;;;;5110445;28;20098;-66
2021/10/12 12:37:07;;;;;;;8.82;4.50;;;;;;;;;;5110289;27;20869;-72
2021/10/12 12:40:53;;;;;;;8.52;4.00;;;;;;;;;;5110653;27;20396;-72
2021/10/12 12:45:26;;;;;;;5.20;2.92;;;;;;;;;;5110481;27;20318;-74
2021/10/12 12:47:54;;;;;;;6.55;3.80;;;;;;;;;;5108307;28;20027;-75
2021/10/12 12:50:30;;;;;;;7.35;4.05;;;;;;;;;;5108046;28;20041;-73
2021/10/12 12:52:57;;;;;;;7.15;4.55;;;;;;;;;;5108312;28;20464;-73
2021/10/12 12:55:37;;;;;;;6.78;4.15;;;;;;;;;;5108602;28;20028;-74
2021/10/12 12:58:04;;;;;;;6.30;4.10;;;;;;;;;;5087682;28;20027;-73
2021/10/12 13:02:21;;;;;;;11.50;5.43;;;;;;;;;;5110215;27;20413;-72
2021/10/12 13:04:48;;;;;;;14.25;5.10;;;;;;;;;;5110790;28;20111;-72
2021/10/12 13:07:16;;;;;;;10.52;5.70;;;;;;;;;;5110879;28;20023;-72
2021/10/12 13:11:29;;;;;;;8.90;5.60;;;;;;;;;;5071115;28;20387;-74
2021/10/12 13:13:56;;;;;;;8.10;4.70;;;;;;;;;;5069699;28;20075;-74
2021/10/12 13:16:48;;;;;;;7.13;4.78;;;;;;;;;;5070021;28;20387;-73
2021/10/12 13:19:14;;;;;;;9.93;6.32;;;;;;;;;;5069900;28;20025;-73
2021/10/12 13:21:40;;;;;;;6.28;4.05;;;;;;;;;;5070680;28;20031;-72
2021/10/12 13:24:07;;;;;;;6.53;4.45;;;;;;;;;;5070587;28;20051;-72
2021/10/12 13:26:33;;;;;;;7.47;4.28;;;;;;;;;;5070404;28;20029;-72
2021/10/12 13:28:59;;;;;;;8.48;5.32;;;;;;;;;;5070673;28;20056;-73
2021/10/12 13:32:42;;;;;;;10.95;5.50;;;;;;;;;;5070400;28;20395;-72
2021/10/12 13:38:56;;;;;;;9.15;5.75;;;;;;;;;;5070759;28;20395;-73
2021/10/12 13:41:22;;;;;;;9.15;4.72;;;;;;;;;;5068375;28;20090;-73
2021/10/12 13:43:48;;;;;;;9.35;6.10;;;;;;;;;;5070453;28;20028;-73
2021/10/12 13:46:15;;;;;;;10.00;6.63;;;;;;;;;;5069180;28;20021;-73
2021/10/12 13:48:41;;;;;;;12.45;7.70;;;;;;;;;;5068963;28;20024;-73
2021/10/12 13:51:10;;;;;;;9.00;5.78;;;;;;;;;;5070613;28;20020;-73
2021/10/12 13:55:42;;;;;;;10.05;5.82;;;;;;;;;;5111010;27;20400;-73
2021/10/12 13:59:04;;;;;;;9.82;6.13;;;;;;;;;;5070688;28;20419;-73
2021/10/12 14:04:04;;;;;;;9.00;4.50;;;;;;;;;;5071597;28;20736;-73
2021/10/12 14:06:30;;;;;;;8.02;4.75;;;;;;;;;;5070723;28;20028;-73
2021/10/12 14:08:56;;;;;;;10.27;6.32;;;;;;;;;;5068968;28;20032;-73
2021/10/12 14:12:05;;;;;;;9.35;5.30;;;;;;;;;;5070894;28;20399;-72
2021/10/12 14:14:32;;;;;;;8.00;5.13;;;;;;;;;;5070754;28;20033;-72
2021/10/12 14:16:58;;;;;;;8.32;5.07;;;;;;;;;;5070301;28;20104;-75
2021/10/12 14:19:24;;;;;;;10.88;6.68;;;;;;;;;;5070525;28;20028;-72
2021/10/12 14:23:37;;;;;;;11.52;6.68;;;;;;;;;;5070606;28;20448;-73
2021/10/12 14:26:05;;;;;;;10.15;5.10;;;;;;;;;;5069416;28;20090;-73
2021/10/12 14:28:31;;;;;;;11.27;7.35;;;;;;;;;;5070527;28;20028;-73
2021/10/12 14:35:56;;;;;;;9.48;5.88;;;;;;;;;;5111193;28;20410;-73
2021/10/12 14:38:26;;;;;;;10.00;5.63;;;;;;;;;;5110813;28;20031;-75
2021/10/12 14:40:52;;;;;;;7.60;4.78;;;;;;;;;;5110952;28;20026;-75
2021/10/12 14:44:08;;;;;;;8.07;4.93;;;;;;;;;;5110855;27;20396;-72
2021/10/12 14:46:35;;;;;;;8.30;5.07;;;;;;;;;;5111223;28;20391;-72
2021/10/12 14:51:43;;;;;;;10.55;5.60;;;;;;;;;;5111023;27;20396;-72
2021/10/12 14:54:09;;;;;;;12.88;7.35;;;;;;;;;;5111392;28;20034;-73
2021/10/12 14:57:04;;;;;;;9.82;7.38;;;;;;;;;;5111552;27;20526;-73
2021/10/12 14:59:30;;;;;;;10.88;6.47;;;;;;;;;;5109588;28;20023;-74
2021/10/12 15:01:58;;;;;;;11.93;7.13;;;;;;;;;;5109916;28;20106;-74
2021/10/12 15:04:24;;;;;;;9.80;5.57;;;;;;;;;;5110853;28;20016;-73
2021/10/12 15:08:43;;;;;;;10.77;6.13;;;;;;;;;;5111650;27;20418;-74
2021/10/12 15:11:09;;;;;;;15.95;8.13;;;;;;;;;;5111135;28;20031;-73
2021/10/12 15:13:35;;;;;;;11.45;7.05;;;;;;;;;;5110625;28;20051;-74
2021/10/12 15:16:01;;;;;;;13.40;8.38;;;;;;;;;;5111498;28;20019;-73
2021/10/12 15:18:28;;;;;;;11.63;5.72;;;;;;;;;;5109370;28;20022;-73
2021/10/12 15:22:12;;;;;;;15.25;9.77;;;;;;;;;;5071544;28;20466;-72
2021/10/12 15:24:38;;;;;;;13.50;8.20;;;;;;;;;;5070555;28;20020;-73
2021/10/12 15:31:31;;;;;;;8.43;5.18;;;;;;;;;;5112079;27;20404;-73
2021/10/12 15:35:44;;;;;;;9.98;5.90;;;;;;;;;;5111479;27;20810;-73
2021/10/12 15:40:03;;;;;;;10.80;5.88;;;;;;;;;;5070856;28;20395;-75
2021/10/12 15:42:29;;;;;;;8.77;5.13;;;;;;;;;;5069346;28;20384;-74
2021/10/12 15:44:55;;;;;;;8.23;5.03;;;;;;;;;;5070734;28;20017;-74
2021/10/12 15:48:43;;;;;;;7.68;5.15;;;;;;;;;;5110890;27;21043;-73
2021/10/12 15:53:55;;;;;;;10.85;6.80;;;;;;;;;;5111185;27;20393;-74
2021/10/12 15:56:21;;;;;;;19.35;11.27;;;;;;;;;;5110040;28;20031;-75
2021/10/12 15:58:47;;;;;;;12.38;7.82;;;;;;;;;;5099074;28;20620;-74
2021/10/12 16:01:14;;;;;;;13.88;7.60;;;;;;;;;;5106659;28;20030;-74
2021/10/12 16:03:41;;;;;;;13.35;7.72;;;;;;;;;;5108914;28;20028;-74
2021/10/12 16:06:08;;;;;;;14.38;8.23;;;;;;;;;;5111009;28;20479;-75
2021/10/12 16:08:34;;;;;;;12.35;7.47;;;;;;;;;;5110524;28;20410;-75
2021/10/12 16:11:00;;;;;;;16.30;9.35;;;;;;;;;;5110951;28;20099;-75
2021/10/12 16:13:27;;;;;;;16.40;9.13;;;;;;;;;;5110713;28;20111;-75
2021/10/12 16:21:31;;;;;;;18.25;14.65;;;;;;;;;;5110979;28;20460;-75
2021/10/12 16:23:59;;;;;;;17.00;8.98;;;;;;;;;;5109326;28;20391;-74
2021/10/12 16:26:25;;;;;;;13.05;8.95;;;;;;;;;;5110694;28;20020;-74
2021/10/12 16:28:51;;;;;;;16.40;8.13;;;;;;;;;;5110307;28;20491;-75
2021/10/12 16:31:17;;;;;;;14.02;8.25;;;;;;;;;;5109742;28;20062;-75
2021/10/12 16:33:43;;;;;;;13.27;8.82;;;;;;;;;;5110573;28;20149;-74
2021/10/12 16:36:10;;;;;;;14.85;9.07;;;;;;;;;;5110300;28;20016;-75